Time;durP1;ratioP1;P1;durP2;ratioP2;P2;SDS_P1;SDS_P2;PMS_P1;PMS_P2;Temp;Humidity;BMP_temperature;BMP_pressure;BME280_temperature;BME280_humidity;BME280_pressure;Samples;Min_cycle;Max_cycle;Signal;HPM_P1;HPM_P2
2023/10/12 00:01:57;;;;;;;7.38;4.20;;;;;;;14.11;100.00;96936.47;5043893;28;20242;-54
2023/10/12 00:04:38;;;;;;;8.07;3.70;;;;;;;14.16;100.00;96929.72;5043043;28;20211;-51
2023/10/12 00:07:10;;;;;;;7.38;4.35;;;;;;;14.03;100.00;96923.16;5044765;28;20199;-54
2023/10/12 00:09:37;;;;;;;7.93;4.38;;;;;;;14.02;100.00;96929.47;5045371;28;20227;-53
2023/10/12 00:12:08;;;;;;;6.75;4.22;;;;;;;14.07;100.00;96929.81;5045596;28;20208;-51
2023/10/12 00:14:36;;;;;;;9.50;5.03;;;;;;;14.05;100.00;96931.81;5043720;28;20199;-52
2023/10/12 00:17:06;;;;;;;8.90;4.28;;;;;;;14.02;100.00;96926.81;5043123;28;20230;-53
2023/10/12 00:19:32;;;;;;;7.40;4.32;;;;;;;13.94;100.00;96925.75;5043108;28;20215;-53
2023/10/12 00:22:11;;;;;;;6.65;4.15;;;;;;;13.99;100.00;96929.78;5043475;28;20223;-53
2023/10/12 00:24:38;;;;;;;7.53;4.32;;;;;;;13.94;100.00;96925.75;5043147;28;20223;-52
2023/10/12 00:27:05;;;;;;;7.93;4.45;;;;;;;13.93;100.00;96921.44;5043475;28;20203;-53
2023/10/12 00:29:33;;;;;;;7.90;4.55;;;;;;;13.88;100.00;96914.94;5043569;28;20211;-54
2023/10/12 00:32:02;;;;;;;10.95;3.88;;;;;;;13.89;100.00;96919.22;5042685;28;20302;-53
2023/10/12 00:34:34;;;;;;;7.32;4.18;;;;;;;13.84;100.00;96917.06;5043180;28;20204;-53
2023/10/12 00:37:03;;;;;;;4.80;3.92;;;;;;;13.81;100.00;96920.03;5043134;28;20226;-52
2023/10/12 00:39:35;;;;;;;5.60;3.55;;;;;;;13.77;100.00;96912.53;5043365;28;20304;-54
2023/10/12 00:42:03;;;;;;;7.40;3.60;;;;;;;13.82;100.00;96904.91;5043397;28;20215;-53
2023/10/12 00:44:34;;;;;;;6.80;4.38;;;;;;;13.84;100.00;96906.44;5043415;28;20731;-53
2023/10/12 00:47:07;;;;;;;6.97;3.80;;;;;;;13.77;100.00;96902.72;5042167;28;20223;-54
2023/10/12 00:49:40;;;;;;;7.88;3.85;;;;;;;13.76;100.00;96908.19;5043182;28;20211;-53
2023/10/12 00:52:14;;;;;;;7.03;3.55;;;;;;;13.74;100.00;96913.69;5042970;28;20606;-53
2023/10/12 00:54:48;;;;;;;8.20;4.57;;;;;;;13.73;100.00;96919.13;5042815;28;20616;-55
2023/10/12 00:57:16;;;;;;;9.97;4.20;;;;;;;13.73;100.00;96922.63;5042748;28;20199;-54
2023/10/12 00:59:43;;;;;;;5.53;4.07;;;;;;;13.71;100.00;96910.50;5041849;28;20207;-53
2023/10/12 01:02:11;;;;;;;4.50;3.65;;;;;;;13.72;100.00;96914.81;5048814;28;20223;-56
2023/10/12 01:04:42;;;;;;;8.40;4.47;;;;;;;13.78;100.00;96911.53;5050043;28;20289;-53
2023/10/12 01:07:19;;;;;;;6.25;4.00;;;;;;;13.71;100.00;96902.53;5064821;28;20218;-53
2023/10/12 01:09:47;;;;;;;10.10;4.50;;;;;;;13.65;100.00;96903.97;5049727;28;20227;-52
2023/10/12 01:12:14;;;;;;;6.30;3.85;;;;;;;13.63;100.00;96897.16;5042167;28;20221;-52
2023/10/12 01:14:43;;;;;;;8.25;4.00;;;;;;;13.60;100.00;96906.28;5042240;28;20253;-53
2023/10/12 01:17:16;;;;;;;7.40;4.25;;;;;;;13.54;100.00;96896.25;5040632;28;20298;-53
2023/10/12 01:19:47;;;;;;;5.35;4.18;;;;;;;13.53;100.00;96899.91;5041622;28;20212;-53
2023/10/12 01:22:25;;;;;;;9.23;4.45;;;;;;;13.46;100.00;96898.84;5042166;28;20195;-53
2023/10/12 01:25:00;;;;;;;7.55;4.13;;;;;;;13.49;100.00;96898.53;5042494;28;20219;-52
2023/10/12 01:27:27;;;;;;;5.85;4.05;;;;;;;13.44;100.00;96895.50;5043032;28;20206;-52
2023/10/12 01:29:54;;;;;;;6.43;3.95;;;;;;;13.42;100.00;96892.19;5042788;28;20225;-54
2023/10/12 01:32:27;;;;;;;6.50;3.97;;;;;;;13.36;100.00;96885.66;5056034;28;20195;-54
2023/10/12 01:34:55;;;;;;;6.57;3.90;;;;;;;13.36;100.00;96883.00;5052084;28;20206;-54
2023/10/12 01:37:26;;;;;;;6.90;3.87;;;;;;;13.36;100.00;96882.16;5053492;28;20199;-52
2023/10/12 01:39:58;;;;;;;7.43;4.43;;;;;;;13.35;100.00;96875.19;5056141;28;20227;-53
2023/10/12 01:42:35;;;;;;;6.10;4.03;;;;;;;13.28;100.00;96877.63;5046319;28;20687;-52
2023/10/12 01:45:02;;;;;;;6.13;3.80;;;;;;;13.32;100.00;96875.50;5042175;28;20223;-54
2023/10/12 01:47:36;;;;;;;5.75;4.50;;;;;;;13.30;100.00;96880.13;5041542;28;20295;-54
2023/10/12 01:50:05;;;;;;;9.47;4.30;;;;;;;13.26;100.00;96868.97;5041946;28;20254;-53
2023/10/12 01:52:34;;;;;;;9.80;4.45;;;;;;;13.23;100.00;96879.06;5042202;28;20199;-54
2023/10/12 01:55:01;;;;;;;7.90;4.50;;;;;;;13.19;100.00;96877.69;5041824;28;20207;-52
2023/10/12 01:57:35;;;;;;;8.13;4.13;;;;;;;13.18;100.00;96863.59;5041151;28;20199;-54
2023/10/12 02:00:09;;;;;;;7.10;4.07;;;;;;;13.18;100.00;96865.44;5041988;28;20298;-52
2023/10/12 02:02:40;;;;;;;7.63;4.20;;;;;;;13.17;100.00;96861.09;5041529;28;20230;-53
2023/10/12 02:05:09;;;;;;;9.30;4.47;;;;;;;13.17;100.00;96867.25;5041287;28;20882;-53
2023/10/12 02:07:39;;;;;;;6.53;4.60;;;;;;;13.16;100.00;96864.72;5041789;28;20210;-53
2023/10/12 02:10:11;;;;;;;7.80;3.83;;;;;;;13.11;100.00;96864.38;5041439;28;20265;-53
2023/10/12 02:12:40;;;;;;;7.23;4.13;;;;;;;13.13;100.00;96863.22;5041283;28;20203;-55
2023/10/12 02:15:15;;;;;;;10.20;4.07;;;;;;;13.10;100.00;96865.34;5041288;28;20288;-54
2023/10/12 02:17:42;;;;;;;6.13;4.37;;;;;;;13.13;100.00;96865.03;5040782;28;20769;-55
2023/10/12 02:20:11;;;;;;;4.85;3.90;;;;;;;13.14;100.00;96861.41;5041004;28;20261;-53
2023/10/12 02:22:40;;;;;;;6.05;3.50;;;;;;;13.13;100.00;96870.34;5041375;28;20517;-52
2023/10/12 02:25:18;;;;;;;7.73;3.97;;;;;;;13.05;100.00;96871.09;5041245;28;20231;-53
2023/10/12 02:27:54;;;;;;;6.33;4.07;;;;;;;13.01;100.00;96868.88;5042013;28;20203;-54
2023/10/12 02:30:28;;;;;;;6.93;4.23;;;;;;;12.99;100.00;96874.34;5042258;28;20198;-52
2023/10/12 02:33:00;;;;;;;7.53;4.23;;;;;;;13.00;100.00;96869.88;5041778;28;20255;-54
2023/10/12 02:35:36;;;;;;;7.03;3.83;;;;;;;13.02;100.00;96867.91;5040837;28;20651;-54
2023/10/12 02:38:06;;;;;;;8.53;4.23;;;;;;;13.00;100.00;96865.41;5042302;28;20199;-53
2023/10/12 02:40:33;;;;;;;6.77;3.83;;;;;;;12.95;100.00;96863.22;5041413;28;20341;-53
2023/10/12 02:43:00;;;;;;;6.43;3.73;;;;;;;12.93;100.00;96870.47;5041478;28;20594;-54
2023/10/12 02:45:28;;;;;;;5.77;3.93;;;;;;;12.94;100.00;96869.50;5040850;28;20228;-51
2023/10/12 02:47:58;;;;;;;6.10;3.60;;;;;;;12.93;100.00;96865.16;5040918;28;20201;-52
2023/10/12 02:50:29;;;;;;;5.93;3.60;;;;;;;12.93;100.00;96869.66;5040884;28;20202;-53
2023/10/12 02:52:55;;;;;;;3.73;3.43;;;;;;;12.94;100.00;96866.00;5041298;28;20338;-53
2023/10/12 02:55:33;;;;;;;6.90;3.90;;;;;;;12.91;100.00;96861.84;5040359;28;20207;-52
2023/10/12 02:58:06;;;;;;;6.10;4.07;;;;;;;12.87;100.00;96871.09;5041298;28;20254;-52
2023/10/12 03:00:36;;;;;;;6.63;3.80;;;;;;;12.91;100.00;96861.84;5040083;28;20203;-54
2023/10/12 03:03:16;;;;;;;5.70;3.63;;;;;;;12.93;100.00;96865.16;5041385;28;20215;-52
2023/10/12 03:05:47;;;;;;;8.57;3.77;;;;;;;12.88;100.00;96867.47;5040628;28;20298;-53
2023/10/12 03:08:14;;;;;;;9.33;4.30;;;;;;;12.86;100.00;96880.03;5041080;28;20203;-52
2023/10/12 03:11:00;;;;;;;6.97;3.37;;;;;;;12.92;100.00;96881.25;5044310;28;20348;-54
2023/10/12 03:13:34;;;;;;;5.07;3.67;;;;;;;12.91;100.00;96874.28;5044858;28;20264;-52
2023/10/12 03:16:08;;;;;;;5.77;3.80;;;;;;;12.93;100.00;96874.97;5044719;28;20207;-54
2023/10/12 03:18:35;;;;;;;6.00;3.80;;;;;;;12.88;100.00;96872.75;5044062;28;20213;-52
2023/10/12 03:21:04;;;;;;;9.17;3.90;;;;;;;12.88;100.00;96879.88;5043703;28;20199;-53
2023/10/12 03:23:33;;;;;;;6.87;3.60;;;;;;;12.86;100.00;96872.06;5044315;28;20215;-54
2023/10/12 03:26:04;;;;;;;7.30;3.97;;;;;;;12.87;100.00;96880.88;5046526;28;20317;-52
2023/10/12 03:28:43;;;;;;;6.90;3.67;;;;;;;12.81;100.00;96877.00;5046033;28;20299;-52
2023/10/12 03:31:15;;;;;;;6.27;3.83;;;;;;;12.84;100.00;96887.31;5046367;28;20230;-54
2023/10/12 03:33:46;;;;;;;5.93;3.87;;;;;;;12.86;100.00;96880.03;5045242;28;20714;-53
2023/10/12 03:36:22;;;;;;;5.87;3.57;;;;;;;12.79;100.00;96878.97;5045050;28;20204;-52
2023/10/12 03:39:07;;;;;;;6.90;3.83;;;;;;;12.75;100.00;96866.97;5045595;28;20531;-54
2023/10/12 03:41:46;;;;;;;4.70;3.67;;;;;;;12.75;100.00;96868.81;5044056;28;20215;-54
2023/10/12 03:44:18;;;;;;;6.13;3.80;;;;;;;12.69;100.00;96872.91;5044122;28;20297;-54
2023/10/12 03:46:47;;;;;;;5.97;3.73;;;;;;;12.68;100.00;96879.19;5043841;28;20230;-52
2023/10/12 03:49:24;;;;;;;11.17;3.97;;;;;;;12.65;100.00;96876.00;5043741;28;20202;-52
2023/10/12 03:51:57;;;;;;;6.67;3.70;;;;;;;12.68;100.00;96873.06;5044135;28;20516;-54
2023/10/12 03:54:29;;;;;;;7.60;3.70;;;;;;;12.64;100.00;96869.88;5043548;28;20206;-52
2023/10/12 03:57:06;;;;;;;4.70;4.10;;;;;;;12.64;100.00;96866.38;5045398;28;20203;-53
2023/10/12 03:59:38;;;;;;;7.07;3.90;;;;;;;12.58;100.00;96866.97;5045388;28;20202;-53
2023/10/12 04:02:06;;;;;;;8.53;4.03;;;;;;;12.53;100.00;96862.13;5045688;28;20259;-52
2023/10/12 04:04:45;;;;;;;7.23;4.13;;;;;;;12.53;100.00;96862.13;5045444;28;20199;-53
2023/10/12 04:07:17;;;;;;;5.33;3.97;;;;;;;12.53;100.00;96859.47;5042832;28;20215;-54
2023/10/12 04:09:43;;;;;;;8.57;4.50;;;;;;;12.55;100.00;96861.97;5043605;28;20203;-52
2023/10/12 04:12:36;;;;;;;6.73;3.97;;;;;;;12.50;100.00;96859.78;5042713;28;20207;-53
2023/10/12 04:15:06;;;;;;;8.10;4.20;;;;;;;12.48;100.00;96859.06;5043521;28;20207;-53
2023/10/12 04:17:47;;;;;;;8.00;5.07;;;;;;;12.48;100.00;96864.38;5043357;28;20202;-53
2023/10/12 04:20:15;;;;;;;7.50;3.70;;;;;;;12.52;100.00;96865.75;5042314;28;20229;-54
2023/10/12 04:25:33;;;;;;;8.17;4.60;;;;;;;12.54;100.00;96862.97;5043041;28;20242;-52
2023/10/12 04:28:16;;;;;;;10.93;4.50;;;;;;;12.53;100.00;96866.59;5043702;28;20639;-53
2023/10/12 04:31:20;;;;;;;9.70;4.03;;;;;;;12.50;100.00;96862.44;5043343;28;20191;-54
2023/10/12 04:33:39;;;;;;;6.77;4.00;;;;;;;12.49;100.00;96855.44;5042556;28;20199;-54
2023/10/12 04:36:13;;;;;;;9.43;4.57;;;;;;;12.53;100.00;96862.13;5042740;28;20198;-52
2023/10/12 04:38:56;;;;;;;10.23;4.03;;;;;;;12.51;100.00;96864.06;5042708;28;20226;-53
2023/10/12 04:41:39;;;;;;;6.73;4.17;;;;;;;12.53;100.00;96872.75;5042989;28;20649;-54
2023/10/12 04:46:51;;;;;;;8.50;4.30;;;;;;;12.51;100.00;96874.69;5042127;28;20216;-54
2023/10/12 04:52:09;;;;;;;8.17;4.40;;;;;;;12.50;100.00;96873.03;5043057;28;20194;-53
2023/10/12 04:54:36;;;;;;;8.40;4.30;;;;;;;12.51;100.00;96880.00;5042537;28;20192;-52
2023/10/12 04:57:13;;;;;;;8.67;4.57;;;;;;;12.56;100.00;96879.56;5042740;28;20210;-55
2023/10/12 04:59:49;;;;;;;5.07;4.47;;;;;;;12.55;100.00;96884.03;5042964;28;20370;-54
2023/10/12 05:02:23;;;;;;;6.20;4.57;;;;;;;12.52;100.00;96880.84;5042553;28;20230;-54
2023/10/12 05:05:14;;;;;;;7.37;4.70;;;;;;;12.50;100.00;96883.66;5042451;28;20447;-52
2023/10/12 05:07:53;;;;;;;6.90;4.17;;;;;;;12.51;100.00;96880.00;5041934;28;20225;-52
2023/10/12 05:10:26;;;;;;;6.13;4.77;;;;;;;12.48;100.00;96882.94;5042433;28;20210;-53
2023/10/12 05:12:57;;;;;;;6.07;4.13;;;;;;;12.49;100.00;96876.66;5042079;28;20703;-53
2023/10/12 05:15:39;;;;;;;5.57;4.30;;;;;;;12.49;100.00;96871.38;5043047;28;20207;-53
2023/10/12 05:18:06;;;;;;;8.87;4.33;;;;;;;12.49;100.00;96879.31;5042096;28;20215;-54
2023/10/12 05:20:32;;;;;;;8.40;5.13;;;;;;;12.46;100.00;96882.28;5042374;28;20210;-54
2023/10/12 05:22:59;;;;;;;8.13;4.60;;;;;;;12.46;100.00;96888.41;5042605;28;20211;-53
2023/10/12 05:25:32;;;;;;;8.03;4.70;;;;;;;12.45;100.00;96885.91;5042292;28;20659;-54
2023/10/12 05:28:13;;;;;;;7.47;4.57;;;;;;;12.44;100.00;96881.56;5042937;28;20206;-53
2023/10/12 05:30:47;;;;;;;11.13;5.00;;;;;;;12.43;100.00;96895.84;5042588;28;20204;-54
2023/10/12 05:33:37;;;;;;;6.60;4.50;;;;;;;12.44;100.00;96895.69;5042525;28;20556;-53
2023/10/12 05:36:08;;;;;;;5.47;4.17;;;;;;;12.48;100.00;96891.75;5051074;28;20219;-53
2023/10/12 05:38:36;;;;;;;8.57;4.10;;;;;;;12.46;100.00;96898.19;5057045;28;20212;-53
2023/10/12 05:41:05;;;;;;;9.37;4.23;;;;;;;12.45;100.00;96899.16;5063129;28;20203;-52
2023/10/12 05:43:33;;;;;;;5.10;4.03;;;;;;;12.45;100.00;96902.66;5046147;28;20222;-54
2023/10/12 05:46:04;;;;;;;7.43;4.57;;;;;;;12.45;100.00;96896.50;5042744;28;20251;-52
2023/10/12 05:48:34;;;;;;;9.20;4.70;;;;;;;12.43;100.00;96907.25;5041958;28;20220;-52
2023/10/12 05:51:00;;;;;;;8.47;4.50;;;;;;;12.48;100.00;96917.44;5042142;28;20289;-52
2023/10/12 05:53:28;;;;;;;6.43;4.60;;;;;;;12.46;100.00;96930.03;5042330;28;20213;-53
2023/10/12 05:55:56;;;;;;;7.63;4.30;;;;;;;12.47;100.00;96942.28;5041880;28;20207;-53
2023/10/12 05:58:23;;;;;;;6.17;4.13;;;;;;;12.50;100.00;96947.31;5041329;28;20222;-55
2023/10/12 06:00:52;;;;;;;6.53;4.10;;;;;;;12.52;100.00;96944.50;5041303;28;20214;-54
2023/10/12 06:03:21;;;;;;;6.23;4.17;;;;;;;12.48;100.00;96938.66;5041425;28;20646;-54
2023/10/12 06:05:48;;;;;;;6.17;4.20;;;;;;;12.47;100.00;96947.59;5041100;28;20210;-53
2023/10/12 06:08:19;;;;;;;8.80;4.80;;;;;;;12.50;100.00;96944.66;5041542;28;20199;-52
2023/10/12 06:10:45;;;;;;;8.23;4.80;;;;;;;12.56;100.00;96940.56;5041499;28;20244;-52
2023/10/12 06:13:15;;;;;;;6.03;4.07;;;;;;;12.58;100.00;96939.44;5041860;28;20211;-53
2023/10/12 06:15:42;;;;;;;6.10;4.13;;;;;;;12.59;100.00;96943.75;5041573;28;20208;-54
2023/10/12 06:18:11;;;;;;;5.87;3.97;;;;;;;12.63;100.00;96953.09;5042016;28;20207;-52
2023/10/12 06:20:42;;;;;;;5.93;4.17;;;;;;;12.65;100.00;96950.28;5043240;28;20633;-53
2023/10/12 06:23:09;;;;;;;6.93;4.00;;;;;;;12.69;100.00;96944.53;5042606;28;20230;-53
2023/10/12 06:25:38;;;;;;;7.80;3.97;;;;;;;12.76;100.00;96956.22;5041287;28;20254;-53
2023/10/12 06:28:11;;;;;;;6.83;4.00;;;;;;;12.79;100.00;96955.09;5041830;28;20208;-53
2023/10/12 06:30:40;;;;;;;5.13;3.77;;;;;;;12.86;100.00;96954.34;5041942;28;20260;-54
2023/10/12 06:33:12;;;;;;;7.57;4.13;;;;;;;12.84;100.00;96953.69;5041794;28;20203;-52
2023/10/12 06:35:58;;;;;;;8.87;3.73;;;;;;;12.92;100.00;96959.06;5041733;28;20560;-54
2023/10/12 06:38:36;;;;;;;9.23;4.00;;;;;;;12.94;100.00;96962.41;5042065;28;20207;-53
2023/10/12 06:41:28;;;;;;;6.80;3.90;;;;;;;12.96;100.00;96965.75;5042770;28;20203;-52
2023/10/12 06:43:58;;;;;;;7.83;4.00;;;;;;;12.98;100.00;96966.44;5044290;28;20260;-53
2023/10/12 06:46:27;;;;;;;9.30;4.30;;;;;;;13.02;100.00;96972.28;5045866;28;20673;-54
2023/10/12 06:48:58;;;;;;;6.23;3.90;;;;;;;13.09;100.00;96985.78;5045338;28;20211;-53
2023/10/12 06:51:28;;;;;;;7.83;4.13;;;;;;;13.12;100.00;96975.72;5044413;28;20290;-54
2023/10/12 06:54:06;;;;;;;8.80;3.90;;;;;;;13.23;100.00;96983.47;5047371;28;20628;-54
2023/10/12 06:56:38;;;;;;;8.83;4.80;;;;;;;13.34;100.00;96990.38;5048355;28;20211;-54
2023/10/12 06:59:20;;;;;;;6.60;4.40;;;;;;;13.41;100.00;96988.81;5048395;28;20203;-54
2023/10/12 07:01:57;;;;;;;11.07;5.17;;;;;;;13.48;100.00;96981.88;5048788;28;20232;-52
2023/10/12 07:04:30;;;;;;;5.70;4.10;;;;;;;13.57;100.00;96996.09;5049687;28;20208;-52
2023/10/12 07:06:57;;;;;;;5.70;4.10;;;;;;;13.65;100.00;96990.81;5049067;28;20220;-54
2023/10/12 07:09:27;;;;;;;7.15;4.63;;;;;;;13.71;100.00;96985.72;5052668;28;20200;-54
2023/10/12 07:11:55;;;;;;;7.70;4.43;;;;;;;13.83;100.00;96989.81;5059277;28;20265;-53
2023/10/12 07:14:31;;;;;;;14.80;7.95;;;;;;;13.95;100.00;96993.91;5048438;28;20230;-54
2023/10/12 07:17:01;;;;;;;11.37;5.43;;;;;;;14.11;100.00;96995.00;5044268;28;20812;-51
2023/10/12 07:19:27;;;;;;;10.75;5.63;;;;;;;14.22;100.00;96997.41;5045476;28;20230;-51
2023/10/12 07:21:55;;;;;;;13.47;5.43;;;;;;;14.31;100.00;97004.44;5045780;28;20211;-54
2023/10/12 07:24:26;;;;;;;7.65;5.00;;;;;;;14.42;100.00;97009.50;5045122;28;20301;-54
2023/10/12 07:26:53;;;;;;;9.73;5.30;;;;;;;14.52;100.00;97010.25;5044312;28;20222;-54
2023/10/12 07:29:35;;;;;;;8.35;5.45;;;;;;;14.61;100.00;97001.31;5044345;28;20884;-53
2023/10/12 07:32:09;;;;;;;10.70;5.90;;;;;;;14.69;100.00;97005.84;5044390;28;20203;-54
2023/10/12 07:34:35;;;;;;;10.45;5.18;;;;;;;14.78;100.00;97003.03;5043896;28;20195;-53
2023/10/12 07:37:02;;;;;;;8.75;4.88;;;;;;;14.87;100.00;96999.44;5045009;28;20214;-52
2023/10/12 07:39:42;;;;;;;9.50;5.53;;;;;;;14.94;100.00;96987.16;5044173;28;20204;-53
2023/10/12 07:42:12;;;;;;;7.57;5.55;;;;;;;15.05;100.00;96987.84;5044430;28;20195;-52
2023/10/12 07:44:42;;;;;;;7.55;5.15;;;;;;;15.15;100.00;96989.34;5043994;28;20646;-53
2023/10/12 07:47:14;;;;;;;7.28;4.95;;;;;;;15.26;100.00;96986.41;5044322;28;20220;-55
2023/10/12 07:49:48;;;;;;;9.32;5.40;;;;;;;15.37;100.00;96986.06;5044051;28;20210;-55
2023/10/12 07:52:22;;;;;;;9.70;5.32;;;;;;;15.52;100.00;96978.28;5046309;28;20234;-55
2023/10/12 07:54:57;;;;;;;8.85;5.35;;;;;;;15.67;100.00;96986.44;5048166;28;20195;-54
2023/10/12 07:57:29;;;;;;;9.45;5.60;;;;;;;15.77;100.00;96985.28;5048737;28;20541;-52
2023/10/12 08:00:15;;;;;;;12.43;6.28;;;;;;;15.92;100.00;96996.13;5045056;28;20203;-54
2023/10/12 08:05:43;;;;;;;8.05;5.57;;;;;;;16.14;100.00;97011.44;5044103;28;20637;-53
2023/10/12 08:08:16;;;;;;;9.85;5.90;;;;;;;16.24;100.00;97008.59;5044409;28;20312;-53
2023/10/12 08:10:58;;;;;;;14.52;6.35;;;;;;;16.30;100.00;97003.41;5044190;28;20208;-52
2023/10/12 08:13:32;;;;;;;8.30;5.80;;;;;;;16.39;100.00;97012.25;5043648;28;20708;-52
2023/10/12 08:15:59;;;;;;;13.27;6.18;;;;;;;16.45;100.00;97011.56;5043263;28;20266;-54
2023/10/12 08:21:23;;;;;;;11.73;5.85;;;;;;;16.57;100.00;97001.38;5042885;28;20194;-53
2023/10/12 08:23:57;;;;;;;10.73;6.47;;;;;;;16.65;100.00;96991.50;5043000;28;20207;-55
2023/10/12 08:26:47;;;;;;;11.07;5.40;;;;;;;16.77;100.00;96979.44;5042838;28;20218;-52
2023/10/12 08:29:21;;;;;;;8.07;5.53;;;;;;;16.91;100.00;96965.34;5043535;28;20196;-53
2023/10/12 08:31:47;;;;;;;9.93;6.28;;;;;;;17.10;100.00;96963.25;5043616;28;20265;-53
2023/10/12 08:34:41;;;;;;;9.55;5.43;;;;;;;17.27;100.00;96956.81;5042954;28;20200;-54
2023/10/12 08:37:17;;;;;;;11.77;5.45;;;;;;;17.47;100.00;96971.38;5043256;28;20218;-52
2023/10/12 08:39:50;;;;;;;11.02;5.53;;;;;;;17.68;100.00;96965.38;5042729;28;20727;-53
2023/10/12 08:42:36;;;;;;;7.05;5.55;;;;;;;17.88;100.00;96967.41;5043343;28;20230;-52
2023/10/12 08:45:09;;;;;;;6.72;5.32;;;;;;;18.08;100.00;96980.28;5042375;28;20203;-53
2023/10/12 08:47:44;;;;;;;10.80;5.57;;;;;;;18.28;100.00;96987.59;5042746;28;20212;-53
2023/10/12 08:50:47;;;;;;;12.02;5.45;;;;;;;18.42;100.00;96991.34;5042104;28;20286;-54
2023/10/12 08:53:03;;;;;;;16.33;6.03;;;;;;;18.54;100.00;96984.53;5042086;28;20338;-54
2023/10/12 08:55:32;;;;;;;9.32;5.78;;;;;;;18.64;100.00;96995.78;5041933;28;20656;-52
2023/10/12 08:58:11;;;;;;;13.93;6.03;;;;;;;18.70;100.00;96995.06;5042630;28;20206;-52
2023/10/12 09:00:44;;;;;;;14.10;6.20;;;;;;;18.75;100.00;96998.00;5043192;28;20207;-54
2023/10/12 09:03:24;;;;;;;7.85;5.28;;;;;;;18.98;100.00;96997.09;5042989;28;20195;-56
2023/10/12 09:05:52;;;;;;;7.97;5.47;;;;;;;19.09;100.00;96999.28;5042918;28;20183;-55
2023/10/12 09:11:25;;;;;;;10.33;5.37;;;;;;;19.31;99.57;96995.63;5079144;27;1242797;-52
2023/10/12 09:13:54;;;;;;;10.32;4.68;;;;;;;19.39;98.30;96990.16;5099542;28;20773;-53
2023/10/12 09:16:21;;;;;;;10.52;5.47;;;;;;;19.41;98.51;96984.59;5099338;28;20189;-53
2023/10/12 09:18:47;;;;;;;9.70;5.25;;;;;;;19.75;95.70;96990.97;5099420;28;20536;-54
2023/10/12 09:21:24;;;;;;;10.90;5.40;;;;;;;19.90;89.31;96976.66;5099341;28;20204;-53
2023/10/12 09:23:52;;;;;;;6.88;4.75;;;;;;;19.78;88.71;96976.34;5099433;28;20201;-54
2023/10/12 09:26:30;;;;;;;7.15;4.43;;;;;;;19.84;93.36;96988.97;5099413;28;20201;-53
2023/10/12 09:29:09;;;;;;;10.25;4.68;;;;;;;19.87;95.20;96991.31;5098806;28;20297;-53
2023/10/12 09:37:07;;;;;;;8.88;5.25;;;;;;;19.76;94.04;96992.66;5098699;28;20254;-53
2023/10/12 09:39:34;;;;;;;7.13;4.25;;;;;;;20.19;94.14;96996.09;5098506;28;20224;-52
2023/10/12 09:42:13;;;;;;;7.72;4.85;;;;;;;20.54;89.74;96996.22;5098595;28;20221;-54
2023/10/12 09:44:40;;;;;;;9.88;4.45;;;;;;;20.79;87.14;96983.97;5099371;28;20212;-54
2023/10/12 09:47:15;;;;;;;8.48;4.30;;;;;;;20.99;86.72;96990.25;5099823;28;20249;-53
2023/10/12 09:49:47;;;;;;;8.65;5.05;;;;;;;21.31;83.72;96984.22;5100818;28;20209;-54
2023/10/12 09:52:17;;;;;;;5.82;4.38;;;;;;;21.49;78.49;96975.59;5100589;28;20258;-53
2023/10/12 09:54:47;;;;;;;8.85;4.50;;;;;;;21.78;75.74;96969.84;5098385;28;20198;-54
2023/10/12 09:57:23;;;;;;;7.60;4.90;;;;;;;22.09;74.18;96979.22;5098221;28;20286;-53
2023/10/12 09:59:53;;;;;;;6.70;3.95;;;;;;;22.41;71.35;96983.78;5098381;28;20182;-54
2023/10/12 10:02:28;;;;;;;7.72;3.70;;;;;;;22.77;68.72;96978.78;5098456;28;21298;-53
2023/10/12 10:05:01;;;;;;;6.05;4.05;;;;;;;22.96;67.16;96979.75;5098998;28;20185;-53
2023/10/12 10:07:32;;;;;;;7.80;3.30;;;;;;;23.39;63.72;96979.97;5111755;28;20198;-58
2023/10/12 10:10:01;;;;;;;6.03;3.78;;;;;;;23.76;64.07;96981.91;5114291;28;20320;-54
2023/10/12 10:12:31;;;;;;;6.60;3.40;;;;;;;24.09;58.25;96975.44;5108659;28;20271;-53
2023/10/12 10:15:00;;;;;;;6.03;3.25;;;;;;;24.08;57.80;96979.19;5099500;28;20288;-53
2023/10/12 10:17:36;;;;;;;4.20;2.88;;;;;;;24.40;57.20;96972.72;5098698;28;20210;-53
2023/10/12 10:20:33;;;;;;;7.82;3.15;;;;;;;24.77;57.53;96969.00;5097994;28;20231;-52
2023/10/12 10:22:59;;;;;;;6.70;3.60;;;;;;;25.05;56.73;96960.38;5083365;28;21373;-53
2023/10/12 10:25:33;;;;;;;8.00;3.55;;;;;;;25.32;56.48;96968.19;5084301;28;20265;-52
2023/10/12 10:28:07;;;;;;;5.05;3.30;;;;;;;25.68;55.60;96966.25;5085743;28;20206;-55
2023/10/12 10:30:41;;;;;;;7.60;3.17;;;;;;;25.92;57.39;96956.34;5084407;28;20205;-53
2023/10/12 10:33:12;;;;;;;9.38;4.05;;;;;;;25.81;54.33;96953.59;5084500;28;20206;-53
2023/10/12 10:36:10;;;;;;;15.45;5.78;;;;;;;25.92;54.04;96947.38;5084357;28;20241;-54
2023/10/12 10:38:46;;;;;;;11.43;4.30;;;;;;;25.51;53.30;96945.47;5084873;28;20230;-53
2023/10/12 10:41:18;;;;;;;4.93;3.28;;;;;;;25.43;54.88;96957.44;5085274;28;20213;-54
2023/10/12 10:43:46;;;;;;;6.72;3.65;;;;;;;25.97;48.06;96944.81;5084978;28;20255;-54
2023/10/12 10:46:16;;;;;;;5.97;3.20;;;;;;;26.37;47.66;96955.84;5083757;28;20298;-54
2023/10/12 10:48:43;;;;;;;23.10;7.85;;;;;;;26.88;46.65;96949.72;5084216;28;20552;-55
2023/10/12 10:51:11;;;;;;;40.42;14.18;;;;;;;26.53;52.73;96949.72;5083174;28;20218;-53
2023/10/12 10:53:38;;;;;;;11.70;4.88;;;;;;;26.12;51.50;96937.03;5083491;28;20229;-54
2023/10/12 10:56:14;;;;;;;4.43;3.08;;;;;;;25.64;52.77;96927.16;5083419;28;20211;-53
2023/10/12 10:58:45;;;;;;;7.32;3.78;;;;;;;25.40;49.49;96930.78;5083079;28;20748;-53
2023/10/12 11:01:15;;;;;;;6.90;3.05;;;;;;;25.78;49.82;96926.97;5084073;28;20226;-54
2023/10/12 11:03:46;;;;;;;5.90;3.30;;;;;;;25.83;53.61;96927.06;5084100;28;20207;-54
2023/10/12 11:06:21;;;;;;;8.43;3.10;;;;;;;25.92;49.05;96918.41;5083545;28;20197;-54
2023/10/12 11:08:53;;;;;;;4.20;3.03;;;;;;;26.34;50.75;96921.06;5083991;28;20289;-53
2023/10/12 11:11:26;;;;;;;8.88;3.28;;;;;;;26.51;47.56;96920.13;5082985;28;20233;-53
2023/10/12 11:13:52;;;;;;;8.80;3.30;;;;;;;26.76;49.42;96908.16;5083427;28;20309;-54
2023/10/12 11:16:28;;;;;;;4.97;3.55;;;;;;;26.90;46.56;96913.13;5083252;28;20647;-53
2023/10/12 11:18:57;;;;;;;3.75;3.17;;;;;;;27.13;46.80;96910.38;5083042;28;20201;-54
2023/10/12 11:21:25;;;;;;;6.72;3.05;;;;;;;27.15;47.94;96912.84;5082389;28;20294;-54
2023/10/12 11:23:57;;;;;;;4.80;3.05;;;;;;;27.63;48.24;96905.09;5082899;28;20194;-56
2023/10/12 11:26:24;;;;;;;6.45;2.90;;;;;;;28.45;42.98;96894.53;5082823;28;20202;-54
2023/10/12 11:29:02;;;;;;;3.00;2.70;;;;;;;28.63;41.77;96905.13;5082519;28;20234;-54
2023/10/12 11:31:31;;;;;;;5.68;3.17;;;;;;;28.47;41.65;96900.56;5082923;28;20225;-54
2023/10/12 11:33:58;;;;;;;7.07;3.30;;;;;;;28.44;43.00;96884.72;5082095;28;20544;-53
2023/10/12 11:36:26;;;;;;;6.00;2.90;;;;;;;28.50;43.18;96883.72;5082829;28;20202;-52
2023/10/12 11:39:00;;;;;;;5.95;2.80;;;;;;;28.73;41.93;96893.63;5083201;28;20213;-53
2023/10/12 11:41:27;;;;;;;5.90;2.92;;;;;;;28.64;43.87;96884.19;5082991;28;20201;-54
2023/10/12 11:43:53;;;;;;;8.18;3.55;;;;;;;28.67;40.96;96879.09;5082597;28;20226;-55
2023/10/12 11:46:20;;;;;;;3.85;2.90;;;;;;;28.49;40.41;96870.34;5082855;28;20202;-54
2023/10/12 11:49:07;;;;;;;6.45;2.90;;;;;;;28.11;42.83;96873.88;5082428;28;20213;-53
2023/10/12 11:51:40;;;;;;;4.30;2.83;;;;;;;28.09;43.51;96865.16;5081432;28;20682;-55
2023/10/12 11:54:07;;;;;;;7.18;3.05;;;;;;;27.68;43.21;96859.00;5081832;28;20204;-55
2023/10/12 11:56:43;;;;;;;6.82;3.20;;;;;;;27.62;42.97;96860.00;5081769;28;20530;-54
2023/10/12 11:59:13;;;;;;;5.30;3.15;;;;;;;27.39;43.84;96860.06;5082074;28;20216;-55
2023/10/12 12:01:41;;;;;;;5.28;3.05;;;;;;;27.18;43.31;96852.63;5082049;28;20191;-55
2023/10/12 12:04:16;;;;;;;4.72;2.88;;;;;;;27.18;43.93;96847.19;5081924;28;20202;-53
2023/10/12 12:06:42;;;;;;;7.78;3.08;;;;;;;26.97;42.79;96845.13;5081733;28;20216;-53
2023/10/12 12:09:09;;;;;;;5.07;2.92;;;;;;;26.91;44.69;96840.69;5081447;28;20248;-55
2023/10/12 12:11:38;;;;;;;4.10;2.60;;;;;;;26.73;45.40;96839.75;5081758;28;20226;-52
2023/10/12 12:14:06;;;;;;;6.15;2.90;;;;;;;26.76;43.77;96845.75;5081944;28;20209;-53